Time;durP1;ratioP1;P1;durP2;ratioP2;P2;SDS_P1;SDS_P2;PMS_P1;PMS_P2;Temp;Humidity;BMP_temperature;BMP_pressure;BME280_temperature;BME280_humidity;BME280_pressure;Samples;Min_cycle;Max_cycle;Signal;HPM_P1;HPM_P2
2021/12/06 00:01:46;;;;;;;12.70;2.70;;;4.90;97.60;;;;;;5049227;28;20088;-58
2021/12/06 00:04:17;;;;;;;13.05;2.67;;;5.00;97.60;;;;;;5067186;28;20493;-58
2021/12/06 00:06:46;;;;;;;12.93;2.88;;;5.10;97.50;;;;;;5045492;28;20053;-60
2021/12/06 00:09:18;;;;;;;17.38;3.88;;;5.00;97.40;;;;;;5067012;28;20450;-60
2021/12/06 00:11:45;;;;;;;8.20;3.20;;;5.00;97.40;;;;;;5062822;28;20052;-59
2021/12/06 00:14:13;;;;;;;11.05;3.53;;;5.00;97.40;;;;;;5046680;28;20503;-60
2021/12/06 00:16:40;;;;;;;15.90;3.95;;;5.10;97.70;;;;;;5056032;28;20139;-59
2021/12/06 00:19:07;;;;;;;11.60;4.30;;;5.10;97.50;;;;;;5060560;28;20080;-59
2021/12/06 00:21:34;;;;;;;15.63;5.00;;;5.10;97.50;;;;;;5066705;28;20110;-59
2021/12/06 00:24:01;;;;;;;14.00;3.35;;;5.10;97.40;;;;;;5066610;28;20045;-60
2021/12/06 00:26:28;;;;;;;13.07;3.28;;;5.20;97.50;;;;;;5069392;28;20052;-59
2021/12/06 00:28:58;;;;;;;11.95;3.20;;;5.10;97.30;;;;;;5048734;28;20072;-59
2021/12/06 00:31:28;;;;;;;12.80;3.10;;;5.10;97.30;;;;;;5070517;28;20056;-60
2021/12/06 00:33:59;;;;;;;20.27;3.35;;;5.10;97.30;;;;;;5078353;28;20054;-59
2021/12/06 00:36:28;;;;;;;11.52;3.25;;;5.00;97.50;;;;;;5086912;28;20750;-60
2021/12/06 00:38:55;;;;;;;12.60;4.47;;;4.90;97.40;;;;;;5052721;28;20090;-59
2021/12/06 00:41:22;;;;;;;11.35;4.43;;;4.90;97.40;;;;;;5083304;28;20167;-60
2021/12/06 00:43:49;;;;;;;12.40;5.63;;;4.90;97.50;;;;;;5077470;28;20084;-60
2021/12/06 00:46:16;;;;;;;12.55;5.63;;;4.90;97.60;;;;;;5066256;28;20072;-59
2021/12/06 00:48:43;;;;;;;14.55;4.03;;;4.90;97.60;;;;;;5082170;28;20134;-59
2021/12/06 00:51:11;;;;;;;8.60;3.47;;;5.00;97.60;;;;;;5088230;28;20486;-59
2021/12/06 00:53:38;;;;;;;9.88;3.50;;;5.00;97.60;;;;;;5089152;28;20109;-59
2021/12/06 00:56:05;;;;;;;12.70;3.42;;;5.00;97.50;;;;;;5070285;28;20083;-59
2021/12/06 00:58:31;;;;;;;12.32;3.25;;;5.00;97.50;;;;;;5088053;28;20509;-60
2021/12/06 01:00:58;;;;;;;10.85;4.05;;;5.00;97.60;;;;;;5086489;28;20097;-60
2021/12/06 01:03:27;;;;;;;13.32;3.95;;;5.00;97.50;;;;;;5070951;28;20495;-58
2021/12/06 01:05:55;;;;;;;12.10;3.97;;;5.10;97.50;;;;;;5087373;28;20052;-59
2021/12/06 01:08:22;;;;;;;7.78;3.22;;;5.10;97.40;;;;;;5084087;28;20076;-59
2021/12/06 01:10:49;;;;;;;8.57;3.97;;;5.10;97.30;;;;;;5036003;28;20110;-59
2021/12/06 01:13:17;;;;;;;12.90;3.55;;;5.10;97.30;;;;;;5074271;28;20058;-59
2021/12/06 01:15:43;;;;;;;13.63;4.28;;;5.20;97.40;;;;;;5072907;28;20049;-59
2021/12/06 01:18:12;;;;;;;21.25;3.72;;;5.10;97.20;;;;;;5049542;28;20053;-59
2021/12/06 01:20:44;;;;;;;8.38;3.30;;;5.10;97.30;;;;;;5079484;28;20113;-61
2021/12/06 01:23:14;;;;;;;16.95;5.82;;;5.10;97.30;;;;;;5080654;28;20404;-62
2021/12/06 01:33:53;;;;;;;18.98;3.92;;;5.00;97.40;;;;;;5086068;28;20093;-59
2021/12/06 01:39:12;;;;;;;8.60;3.38;;;5.00;97.60;;;;;;5081291;28;20048;-59
2021/12/06 01:41:43;;;;;;;13.88;4.30;;;5.00;97.50;;;;;;5084176;28;20132;-59
2021/12/06 01:44:11;;;;;;;13.07;4.05;;;5.00;97.60;;;;;;5082019;28;20061;-59
2021/12/06 01:46:41;;;;;;;13.02;4.65;;;5.00;97.50;;;;;;5081936;28;20089;-59
2021/12/06 01:49:08;;;;;;;6.80;3.53;;;5.00;97.60;;;;;;5083167;28;20090;-59
2021/12/06 01:51:35;;;;;;;10.10;3.20;;;5.00;97.40;;;;;;5056620;28;20082;-61
2021/12/06 01:54:03;;;;;;;10.48;3.45;;;5.00;97.40;;;;;;5071056;28;20047;-59
2021/12/06 01:56:30;;;;;;;15.50;5.15;;;5.00;97.50;;;;;;5066271;28;20503;-59
2021/12/06 01:58:56;;;;;;;9.73;4.15;;;5.00;97.40;;;;;;5070060;28;20458;-59
2021/12/06 02:01:23;;;;;;;10.52;4.03;;;5.00;97.40;;;;;;5076107;28;20087;-59
2021/12/06 02:03:50;;;;;;;11.52;3.70;;;4.90;97.50;;;;;;5086128;28;20054;-59
2021/12/06 02:06:17;;;;;;;14.75;6.07;;;4.90;97.60;;;;;;5078355;28;20048;-59
2021/12/06 02:08:43;;;;;;;14.40;5.05;;;4.90;97.70;;;;;;5067401;28;20048;-59
2021/12/06 02:11:11;;;;;;;13.57;4.93;;;4.80;97.90;;;;;;5074213;28;20051;-59
2021/12/06 02:13:49;;;;;;;15.82;5.18;;;4.80;98.00;;;;;;5087711;28;20093;-59
2021/12/06 02:16:19;;;;;;;14.27;5.15;;;4.70;98.10;;;;;;5084009;28;21424;-59
2021/12/06 02:18:50;;;;;;;13.18;6.35;;;4.70;98.10;;;;;;5066838;28;20284;-59
2021/12/06 02:21:32;;;;;;;15.57;7.30;;;4.70;98.10;;;;;;5067009;28;20049;-59
2021/12/06 02:24:01;;;;;;;13.90;6.32;;;4.70;98.10;;;;;;5086950;28;20048;-58
2021/12/06 02:26:27;;;;;;;11.55;6.90;;;4.70;98.10;;;;;;5081288;28;20047;-59
2021/12/06 02:28:54;;;;;;;9.93;6.53;;;4.60;98.20;;;;;;5066584;28;20102;-59
2021/12/06 02:31:22;;;;;;;17.42;7.80;;;4.50;98.30;;;;;;5078371;28;20567;-59
2021/12/06 02:33:49;;;;;;;20.58;10.52;;;4.50;98.50;;;;;;5066976;28;20533;-59
2021/12/06 02:36:17;;;;;;;14.50;7.90;;;4.40;98.50;;;;;;5048961;28;20083;-60
2021/12/06 02:38:44;;;;;;;15.48;7.75;;;4.50;98.50;;;;;;5084408;28;20383;-59
2021/12/06 02:41:11;;;;;;;24.23;8.57;;;4.50;98.50;;;;;;5048418;28;20044;-59
2021/12/06 02:43:38;;;;;;;17.90;8.27;;;4.40;98.50;;;;;;5054212;28;20052;-59
2021/12/06 02:46:05;;;;;;;29.02;10.68;;;4.40;98.40;;;;;;5070727;28;20079;-59
2021/12/06 02:48:32;;;;;;;22.27;9.48;;;4.40;98.40;;;;;;5080307;28;20056;-59
2021/12/06 02:51:00;;;;;;;30.73;9.00;;;4.40;98.40;;;;;;4709115;28;10000255;-59
2021/12/06 02:53:28;;;;;;;16.95;8.38;;;4.40;98.40;;;;;;5075958;28;20220;-59
2021/12/06 02:55:58;;;;;;;16.48;9.40;;;4.40;98.40;;;;;;5065611;28;20047;-59
2021/12/06 02:59:12;;;;;;;20.38;8.27;;;4.40;98.40;;;;;;5067344;28;20083;-60
2021/12/06 03:01:22;;;;;;;13.55;8.38;;;4.40;98.40;;;;;;5056175;28;20178;-59
2021/12/06 03:03:49;;;;;;;16.00;10.02;;;4.30;98.50;;;;;;5070225;28;20048;-59
2021/12/06 03:06:17;;;;;;;19.17;8.88;;;4.20;98.70;;;;;;5070503;28;20094;-59
2021/12/06 03:08:49;;;;;;;12.45;8.07;;;4.20;98.70;;;;;;5070923;28;20041;-59
2021/12/06 03:11:18;;;;;;;17.80;9.13;;;4.10;98.80;;;;;;5072988;28;20044;-59
2021/12/06 03:13:45;;;;;;;20.00;9.07;;;4.10;99.00;;;;;;5054039;28;20428;-58
2021/12/06 03:16:12;;;;;;;15.82;8.57;;;4.10;98.90;;;;;;5071179;28;20088;-59
2021/12/06 03:18:42;;;;;;;16.13;10.68;;;4.10;99.00;;;;;;5079488;28;20047;-58
2021/12/06 03:21:08;;;;;;;23.48;9.30;;;4.10;98.80;;;;;;5072855;28;20087;-59
2021/12/06 03:23:35;;;;;;;19.83;10.18;;;4.20;99.20;;;;;;5082881;28;20068;-59
2021/12/06 03:26:03;;;;;;;20.80;9.90;;;4.10;98.90;;;;;;5070178;28;20098;-58
2021/12/06 03:28:35;;;;;;;16.33;9.05;;;4.10;98.80;;;;;;5075808;28;20098;-58
2021/12/06 03:31:06;;;;;;;20.95;11.77;;;4.10;98.90;;;;;;5054600;28;20411;-59
2021/12/06 03:33:38;;;;;;;19.50;9.75;;;4.10;98.90;;;;;;5074893;28;20090;-59
2021/12/06 03:36:06;;;;;;;23.40;10.90;;;4.10;98.80;;;;;;5072450;28;20044;-59
2021/12/06 03:38:33;;;;;;;22.85;11.18;;;4.10;98.90;;;;;;5086122;28;20052;-58
2021/12/06 03:41:00;;;;;;;19.92;9.52;;;4.10;98.80;;;;;;5070910;28;20040;-61
2021/12/06 03:43:27;;;;;;;20.23;10.90;;;4.10;98.80;;;;;;5077858;28;20048;-60
2021/12/06 03:45:54;;;;;;;20.70;9.95;;;4.10;98.90;;;;;;5055115;28;20478;-59
2021/12/06 03:48:21;;;;;;;19.83;10.48;;;4.00;99.00;;;;;;5074035;28;20056;-59
2021/12/06 03:50:48;;;;;;;21.13;10.60;;;4.00;99.00;;;;;;5084523;28;20435;-58
2021/12/06 03:53:15;;;;;;;26.40;11.05;;;3.90;99.10;;;;;;5089938;28;20506;-60
2021/12/06 03:55:41;;;;;;;26.80;11.55;;;3.90;99.10;;;;;;5090494;28;20087;-59
2021/12/06 03:58:08;;;;;;;22.98;11.98;;;4.00;99.00;;;;;;5088541;28;20097;-59
2021/12/06 04:00:35;;;;;;;24.05;11.93;;;4.00;99.10;;;;;;5080102;28;20048;-59
2021/12/06 04:03:02;;;;;;;19.60;10.80;;;4.00;98.90;;;;;;5078246;28;20510;-58
2021/12/06 04:05:29;;;;;;;18.45;10.77;;;4.00;99.00;;;;;;5078720;28;20117;-61
2021/12/06 04:07:56;;;;;;;28.25;12.00;;;4.00;99.00;;;;;;5088945;28;20088;-58
2021/12/06 04:10:25;;;;;;;22.08;12.05;;;4.00;99.10;;;;;;5081118;28;20079;-60
2021/12/06 04:12:55;;;;;;;20.00;11.32;;;3.90;99.00;;;;;;5069071;28;20053;-60
2021/12/06 04:15:22;;;;;;;22.95;11.25;;;3.90;99.00;;;;;;5076302;28;20040;-61
2021/12/06 04:17:49;;;;;;;23.92;12.43;;;3.80;99.10;;;;;;5089317;28;20047;-61
2021/12/06 04:20:16;;;;;;;27.80;12.57;;;3.80;99.20;;;;;;5083832;28;20402;-57
2021/12/06 04:22:43;;;;;;;28.30;12.95;;;3.80;99.20;;;;;;5069679;28;20559;-58
2021/12/06 04:25:12;;;;;;;27.63;12.07;;;3.80;99.30;;;;;;5073373;28;20106;-60
2021/12/06 04:27:39;;;;;;;26.77;14.07;;;3.80;99.20;;;;;;5051993;28;20075;-60
2021/12/06 04:30:07;;;;;;;32.28;13.05;;;3.80;99.30;;;;;;5079632;28;20048;-59
2021/12/06 04:32:34;;;;;;;26.83;12.95;;;3.90;99.30;;;;;;5051310;28;20057;-59
2021/12/06 04:35:01;;;;;;;34.95;13.60;;;3.90;99.20;;;;;;5072942;28;20090;-60
2021/12/06 04:37:28;;;;;;;23.88;12.50;;;3.90;99.10;;;;;;5051534;28;20056;-59
2021/12/06 04:39:54;;;;;;;24.73;12.00;;;3.90;99.00;;;;;;5072978;28;20076;-60
2021/12/06 04:42:22;;;;;;;24.25;12.93;;;3.90;99.10;;;;;;5082681;28;20514;-59
2021/12/06 04:44:49;;;;;;;39.63;15.55;;;4.00;99.00;;;;;;5089206;28;20089;-59
2021/12/06 04:47:15;;;;;;;29.10;12.98;;;4.00;99.10;;;;;;5089167;28;20052;-60
2021/12/06 04:49:42;;;;;;;23.42;12.43;;;4.10;98.90;;;;;;5085277;28;20057;-59
2021/12/06 04:52:10;;;;;;;26.27;13.20;;;4.20;99.00;;;;;;5080031;28;20360;-59
2021/12/06 04:54:40;;;;;;;29.65;13.18;;;4.10;98.90;;;;;;5051234;28;20489;-60
2021/12/06 04:57:24;;;;;;;24.85;13.73;;;4.00;99.00;;;;;;5079784;28;20060;-59
2021/12/06 05:00:21;;;;;;;35.03;15.48;;;4.00;99.10;;;;;;5052802;28;20469;-60
2021/12/06 05:02:48;;;;;;;32.35;13.23;;;4.00;99.10;;;;;;5009060;28;20053;-61
2021/12/06 05:05:36;;;;;;;32.50;13.70;;;4.10;99.20;;;;;;5050865;28;20047;-59
2021/12/06 05:08:10;;;;;;;26.73;14.80;;;4.10;99.00;;;;;;5068186;28;20114;-59
2021/12/06 05:10:37;;;;;;;27.23;14.43;;;4.10;99.10;;;;;;5072608;28;20044;-60
2021/12/06 05:13:04;;;;;;;22.80;13.07;;;4.10;99.00;;;;;;5078715;28;20391;-59
2021/12/06 05:15:31;;;;;;;29.77;13.35;;;4.40;99.00;;;;;;5085372;28;20040;-59
2021/12/06 05:17:58;;;;;;;32.95;14.98;;;4.20;99.00;;;;;;5079056;28;20045;-60
2021/12/06 05:20:25;;;;;;;34.95;17.65;;;4.20;98.90;;;;;;5069494;28;20045;-60
2021/12/06 05:22:51;;;;;;;28.17;13.10;;;4.10;98.90;;;;;;5076751;28;20635;-59
2021/12/06 05:25:22;;;;;;;24.73;14.52;;;4.10;99.20;;;;;;5087711;28;20047;-60
2021/12/06 05:27:50;;;;;;;30.52;14.90;;;4.10;99.00;;;;;;5075165;28;20044;-58
2021/12/06 05:30:20;;;;;;;22.08;14.05;;;4.10;99.10;;;;;;5076261;28;20052;-61
2021/12/06 05:32:47;;;;;;;29.88;14.68;;;4.10;99.20;;;;;;5080125;28;20048;-60
2021/12/06 05:35:15;;;;;;;24.02;14.50;;;4.20;99.20;;;;;;5068063;28;20711;-59
2021/12/06 05:37:45;;;;;;;31.13;13.70;;;4.20;99.00;;;;;;5080489;28;20466;-59
2021/12/06 05:40:15;;;;;;;29.65;15.20;;;4.20;98.90;;;;;;5067682;28;20568;-59
2021/12/06 05:42:42;;;;;;;28.10;14.68;;;4.20;98.90;;;;;;5072125;28;20086;-60
2021/12/06 05:45:10;;;;;;;33.40;15.27;;;4.20;99.00;;;;;;5049690;28;20495;-62
2021/12/06 05:47:37;;;;;;;30.45;14.52;;;4.20;99.00;;;;;;5071696;28;20056;-59
2021/12/06 05:50:05;;;;;;;32.63;15.30;;;4.20;99.00;;;;;;5084829;28;20052;-59
2021/12/06 05:52:32;;;;;;;35.97;14.82;;;4.30;99.10;;;;;;5069873;28;20052;-60
2021/12/06 05:54:58;;;;;;;29.75;15.50;;;4.20;98.70;;;;;;5072610;28;20097;-61
2021/12/06 05:57:25;;;;;;;32.20;14.55;;;4.30;98.80;;;;;;5071728;28;20040;-60
2021/12/06 05:59:52;;;;;;;31.80;13.68;;;4.50;98.70;;;;;;5079954;28;20044;-60
2021/12/06 06:02:19;;;;;;;29.13;13.00;;;4.20;98.70;;;;;;5083181;28;20554;-59
2021/12/06 06:04:46;;;;;;;30.00;13.95;;;4.30;98.70;;;;;;5077248;28;20040;-59
2021/12/06 06:07:13;;;;;;;30.65;14.52;;;4.20;98.70;;;;;;5068516;28;20086;-59
2021/12/06 06:09:40;;;;;;;26.33;13.73;;;4.20;98.80;;;;;;5078696;28;20067;-60
2021/12/06 06:12:07;;;;;;;40.40;15.65;;;4.20;98.80;;;;;;5067770;28;20052;-59
2021/12/06 06:14:33;;;;;;;31.58;14.18;;;4.20;98.90;;;;;;5076198;28;20044;-60
2021/12/06 06:17:13;;;;;;;33.20;14.75;;;4.30;99.00;;;;;;5087135;28;20044;-60
2021/12/06 06:19:45;;;;;;;23.63;12.88;;;4.30;98.80;;;;;;5047492;28;20045;-62
2021/12/06 06:22:12;;;;;;;29.08;15.48;;;4.20;98.80;;;;;;5067308;28;20522;-59
2021/12/06 06:24:39;;;;;;;27.85;14.60;;;4.20;98.70;;;;;;5075164;28;20085;-60
2021/12/06 06:27:07;;;;;;;27.73;13.60;;;4.30;98.90;;;;;;5087243;28;20060;-61
2021/12/06 06:29:35;;;;;;;25.60;12.93;;;4.30;98.90;;;;;;5077999;28;20094;-60
2021/12/06 06:32:03;;;;;;;31.17;15.75;;;4.30;99.00;;;;;;5087276;28;20051;-60
2021/12/06 06:34:30;;;;;;;31.33;15.23;;;4.30;98.90;;;;;;5045179;28;20071;-60
2021/12/06 06:36:56;;;;;;;31.85;14.60;;;4.30;98.90;;;;;;5059009;28;20060;-60
2021/12/06 06:39:23;;;;;;;34.90;14.15;;;4.30;98.90;;;;;;5068077;28;20044;-59
2021/12/06 06:41:50;;;;;;;25.23;13.38;;;4.30;98.90;;;;;;5061774;28;20094;-60
2021/12/06 06:44:18;;;;;;;23.30;12.50;;;4.20;98.90;;;;;;5048160;28;20577;-59
2021/12/06 06:46:45;;;;;;;29.48;13.88;;;4.20;98.90;;;;;;5082452;28;20048;-59
2021/12/06 06:49:12;;;;;;;28.88;14.52;;;4.30;99.00;;;;;;5082199;28;20139;-59
2021/12/06 06:51:39;;;;;;;26.73;14.13;;;4.30;98.80;;;;;;5073812;28;20056;-59
2021/12/06 06:54:06;;;;;;;29.15;14.25;;;4.30;98.90;;;;;;5065248;28;20079;-59
2021/12/06 06:56:33;;;;;;;27.40;14.63;;;4.30;98.80;;;;;;5073548;28;20109;-60
2021/12/06 06:59:00;;;;;;;27.48;14.52;;;4.30;98.90;;;;;;5060225;28;20048;-59
2021/12/06 07:01:27;;;;;;;32.75;14.68;;;4.30;99.00;;;;;;5074931;28;20465;-61
2021/12/06 07:03:54;;;;;;;33.25;15.02;;;4.30;98.80;;;;;;5036072;28;20080;-60
2021/12/06 07:06:25;;;;;;;30.25;13.75;;;4.30;98.90;;;;;;5066080;28;20036;-60
2021/12/06 07:08:53;;;;;;;23.45;12.60;;;4.30;98.90;;;;;;5054151;28;20450;-60
2021/12/06 07:11:25;;;;;;;26.75;12.88;;;4.20;98.80;;;;;;5061608;28;20072;-59
2021/12/06 07:13:52;;;;;;;28.25;13.70;;;4.30;99.10;;;;;;5062790;28;20075;-58
2021/12/06 07:16:18;;;;;;;26.83;12.88;;;4.30;98.90;;;;;;5076920;28;20048;-59
2021/12/06 07:18:45;;;;;;;25.15;11.93;;;4.30;99.00;;;;;;5057709;28;20057;-60
2021/12/06 07:21:14;;;;;;;30.48;13.77;;;4.30;98.90;;;;;;5076910;28;20052;-59
2021/12/06 07:23:41;;;;;;;26.17;12.55;;;4.30;98.90;;;;;;5065771;28;20058;-59
2021/12/06 07:26:09;;;;;;;25.70;12.48;;;4.30;98.70;;;;;;5048051;28;20056;-60
2021/12/06 07:28:37;;;;;;;22.08;12.15;;;4.30;98.70;;;;;;5066010;28;20060;-60
2021/12/06 07:31:06;;;;;;;22.10;12.90;;;4.20;98.60;;;;;;5029428;28;20411;-59
2021/12/06 07:33:33;;;;;;;30.08;12.65;;;4.20;98.60;;;;;;5047670;28;20499;-60
2021/12/06 07:36:01;;;;;;;18.02;10.57;;;4.10;98.70;;;;;;5047505;28;20036;-59
2021/12/06 07:38:27;;;;;;;24.75;11.88;;;4.10;98.90;;;;;;5047419;28;20175;-57
2021/12/06 07:40:55;;;;;;;21.20;11.98;;;4.10;99.00;;;;;;5070441;28;20339;-56
2021/12/06 07:43:22;;;;;;;23.45;12.27;;;4.10;98.80;;;;;;5072272;28;20415;-56
2021/12/06 07:45:49;;;;;;;22.92;11.38;;;4.10;98.70;;;;;;5067407;28;20480;-60
2021/12/06 07:48:16;;;;;;;19.33;10.80;;;4.10;98.70;;;;;;5074561;28;20048;-57
2021/12/06 07:50:43;;;;;;;22.63;12.07;;;4.10;98.80;;;;;;5068910;28;20047;-53
2021/12/06 07:53:10;;;;;;;27.15;21.10;;;4.10;98.80;;;;;;5061909;28;20478;-56
2021/12/06 07:55:37;;;;;;;24.30;12.13;;;4.10;98.90;;;;;;5062902;28;20511;-56
2021/12/06 07:58:04;;;;;;;19.48;10.73;;;4.10;98.80;;;;;;5070262;28;20089;-55
2021/12/06 08:00:34;;;;;;;19.33;10.60;;;4.10;98.80;;;;;;5081234;28;20495;-57
2021/12/06 08:03:01;;;;;;;19.00;9.18;;;4.20;98.80;;;;;;5066568;28;20064;-59
2021/12/06 08:05:35;;;;;;;26.90;12.90;;;4.20;98.80;;;;;;5042374;28;20048;-58
2021/12/06 08:08:10;;;;;;;21.73;10.20;;;4.20;99.00;;;;;;5072231;28;20521;-55
2021/12/06 08:10:40;;;;;;;16.95;9.07;;;4.20;98.80;;;;;;5032744;28;20056;-61
2021/12/06 08:13:06;;;;;;;18.73;9.63;;;4.20;98.90;;;;;;5080733;28;20051;-54
2021/12/06 08:15:33;;;;;;;19.65;10.63;;;4.20;98.90;;;;;;5068557;28;20045;-60
2021/12/06 08:18:00;;;;;;;14.10;8.07;;;4.30;98.90;;;;;;5070220;28;20055;-60
2021/12/06 08:20:27;;;;;;;13.75;7.03;;;4.30;98.60;;;;;;5078264;28;20094;-60
2021/12/06 08:22:54;;;;;;;13.05;6.82;;;4.40;98.60;;;;;;5080113;28;20080;-61
2021/12/06 08:25:21;;;;;;;11.38;6.50;;;4.40;98.50;;;;;;5053938;28;20044;-60
2021/12/06 08:27:48;;;;;;;15.65;7.07;;;4.40;98.50;;;;;;5074351;28;20180;-60
2021/12/06 08:30:16;;;;;;;13.27;6.80;;;4.30;98.40;;;;;;5065356;28;20052;-60
2021/12/06 08:32:43;;;;;;;15.38;6.85;;;4.30;98.60;;;;;;5078991;28;20056;-62
2021/12/06 08:35:29;;;;;;;13.07;6.88;;;4.30;98.50;;;;;;5083367;28;20044;-60
2021/12/06 08:37:57;;;;;;;18.38;8.07;;;4.40;98.70;;;;;;5076282;28;20087;-61
2021/12/06 08:40:26;;;;;;;13.98;7.40;;;4.40;98.50;;;;;;5073219;28;20045;-59
2021/12/06 08:42:52;;;;;;;17.60;6.97;;;4.50;98.40;;;;;;5054240;28;20268;-60
2021/12/06 08:45:20;;;;;;;13.10;6.53;;;4.50;98.50;;;;;;5076706;28;20125;-58
2021/12/06 08:47:46;;;;;;;13.38;5.90;;;4.50;98.70;;;;;;5073133;28;20048;-59
2021/12/06 08:50:16;;;;;;;9.32;5.10;;;4.50;98.40;;;;;;5078774;28;20048;-59
2021/12/06 08:52:43;;;;;;;16.20;4.95;;;4.60;98.40;;;;;;5066278;28;20049;-58
2021/12/06 08:55:10;;;;;;;12.05;6.20;;;4.60;98.30;;;;;;5077406;28;20044;-58
2021/12/06 08:57:37;;;;;;;10.60;5.88;;;4.60;98.30;;;;;;5079947;28;20044;-62
2021/12/06 09:00:06;;;;;;;13.95;5.97;;;4.60;98.30;;;;;;5078715;28;20048;-59
2021/12/06 09:02:33;;;;;;;15.07;6.88;;;4.70;98.40;;;;;;5067852;28;20048;-60
2021/12/06 09:05:20;;;;;;;9.30;6.00;;;4.70;98.40;;;;;;5053286;28;20076;-59
2021/12/06 09:07:48;;;;;;;12.65;5.38;;;4.70;98.10;;;;;;5068781;28;20044;-60
2021/12/06 09:10:15;;;;;;;10.55;5.20;;;4.80;98.20;;;;;;5079913;28;20048;-59
2021/12/06 09:12:41;;;;;;;11.07;6.38;;;4.80;98.10;;;;;;5080725;28;20487;-60
2021/12/06 09:15:12;;;;;;;14.43;6.50;;;4.90;98.20;;;;;;5072409;28;20056;-60
2021/12/06 09:17:45;;;;;;;14.63;6.68;;;4.90;98.10;;;;;;5076069;28;20052;-61
2021/12/06 09:20:13;;;;;;;13.02;5.90;;;4.90;98.10;;;;;;5081851;28;20102;-60
2021/12/06 09:22:41;;;;;;;9.77;5.78;;;5.00;98.00;;;;;;5069574;28;20097;-60
2021/12/06 09:25:08;;;;;;;12.93;5.00;;;5.10;98.20;;;;;;5080245;28;20090;-60
2021/12/06 09:27:36;;;;;;;9.70;4.85;;;5.10;98.20;;;;;;5064178;28;20127;-59
2021/12/06 09:30:04;;;;;;;13.75;4.50;;;5.20;98.40;;;;;;5050482;28;20118;-60
2021/12/06 09:32:31;;;;;;;10.05;3.90;;;5.30;97.90;;;;;;5067975;28;20339;-59
2021/12/06 09:34:58;;;;;;;8.52;4.88;;;5.30;97.70;;;;;;5072102;28;20044;-60
2021/12/06 09:37:25;;;;;;;17.67;4.30;;;5.40;97.60;;;;;;5083674;28;20508;-60
2021/12/06 09:39:53;;;;;;;14.32;4.68;;;5.60;97.50;;;;;;5084236;28;20059;-60
2021/12/06 09:42:21;;;;;;;11.35;3.67;;;5.60;97.40;;;;;;5074276;28;20511;-60
2021/12/06 09:44:48;;;;;;;10.55;4.65;;;5.60;97.30;;;;;;5071248;28;20465;-60
2021/12/06 09:47:16;;;;;;;15.13;4.82;;;5.60;97.10;;;;;;5076591;28;20521;-61
2021/12/06 09:49:42;;;;;;;17.20;4.55;;;5.60;97.10;;;;;;5071461;28;20113;-59
2021/12/06 09:52:10;;;;;;;11.82;4.63;;;5.50;97.10;;;;;;5076885;28;20044;-60
2021/12/06 09:54:39;;;;;;;12.23;4.57;;;5.60;97.10;;;;;;5086843;28;20502;-60
2021/12/06 09:57:07;;;;;;;11.75;4.35;;;5.60;97.20;;;;;;5079423;28;20090;-60
2021/12/06 09:59:35;;;;;;;9.32;4.30;;;5.60;97.00;;;;;;5069351;28;20052;-61
2021/12/06 10:02:08;;;;;;;8.05;3.95;;;5.60;97.00;;;;;;5088437;28;20040;-64
2021/12/06 10:04:38;;;;;;;10.77;4.00;;;5.70;97.00;;;;;;5070958;28;20056;-60
2021/12/06 10:07:07;;;;;;;12.10;5.15;;;5.60;97.00;;;;;;5074561;28;20044;-60
2021/12/06 10:09:34;;;;;;;12.25;3.78;;;5.60;97.10;;;;;;5088422;28;20097;-60
2021/12/06 10:12:02;;;;;;;12.80;4.68;;;5.70;97.00;;;;;;5074936;28;20098;-60
2021/12/06 10:14:29;;;;;;;7.32;3.50;;;5.70;96.80;;;;;;5088254;28;20153;-61
2021/12/06 10:16:55;;;;;;;11.52;3.88;;;5.70;96.70;;;;;;5057654;28;20501;-60
2021/12/06 10:19:25;;;;;;;10.60;4.13;;;5.80;96.60;;;;;;5080459;28;20521;-60
2021/12/06 10:21:52;;;;;;;7.05;3.22;;;5.80;96.70;;;;;;5077917;28;20040;-60
2021/12/06 10:24:23;;;;;;;7.10;3.78;;;5.80;96.80;;;;;;5086733;28;20052;-59
2021/12/06 10:26:51;;;;;;;9.35;4.32;;;5.90;96.60;;;;;;5074954;28;20048;-60
2021/12/06 10:29:21;;;;;;;14.13;5.78;;;6.10;96.50;;;;;;5067706;28;20094;-60
2021/12/06 10:31:52;;;;;;;15.43;5.03;;;5.80;96.70;;;;;;5074675;28;20066;-60
2021/12/06 10:34:24;;;;;;;14.70;5.13;;;5.80;96.80;;;;;;5054723;28;20067;-60
2021/12/06 10:36:52;;;;;;;7.88;5.25;;;5.90;96.80;;;;;;5070370;28;20040;-61
2021/12/06 10:39:18;;;;;;;12.93;5.35;;;5.90;96.90;;;;;;5081649;28;20055;-60
2021/12/06 10:41:49;;;;;;;13.02;4.80;;;5.90;96.90;;;;;;5083803;28;20044;-60
2021/12/06 10:44:15;;;;;;;9.18;4.65;;;5.90;97.00;;;;;;5079754;28;20165;-60
2021/12/06 10:46:48;;;;;;;10.68;4.57;;;5.90;97.00;;;;;;5085834;28;20036;-60
2021/12/06 10:49:18;;;;;;;8.20;4.10;;;5.90;96.90;;;;;;5077765;28;20078;-60
2021/12/06 10:51:45;;;;;;;11.85;4.70;;;5.90;97.00;;;;;;5085908;28;21167;-65
2021/12/06 10:54:21;;;;;;;18.35;5.03;;;6.00;97.00;;;;;;5076395;28;20526;-60
2021/12/06 10:56:51;;;;;;;13.40;5.38;;;5.90;97.00;;;;;;5085600;28;20106;-61
2021/12/06 10:59:23;;;;;;;12.80;5.40;;;6.00;97.10;;;;;;5076400;28;20055;-60
2021/12/06 11:01:52;;;;;;;11.77;4.93;;;6.00;97.20;;;;;;5086048;28;20060;-61
2021/12/06 11:04:23;;;;;;;10.13;4.22;;;6.00;97.40;;;;;;5076196;28;20047;-61
2021/12/06 11:06:52;;;;;;;11.55;4.45;;;6.00;97.50;;;;;;5086972;28;20082;-60
2021/12/06 11:09:23;;;;;;;15.52;6.43;;;6.00;97.70;;;;;;5078516;28;20052;-60
2021/12/06 11:11:53;;;;;;;13.95;4.50;;;6.00;98.30;;;;;;5067886;28;20098;-60
2021/12/06 11:14:25;;;;;;;12.40;4.63;;;5.90;98.10;;;;;;5074467;28;20044;-61
2021/12/06 11:16:59;;;;;;;14.20;4.70;;;5.90;98.10;;;;;;5088019;28;20044;-61
2021/12/06 11:19:28;;;;;;;15.82;4.50;;;5.90;98.40;;;;;;5056753;28;20453;-60
2021/12/06 11:22:04;;;;;;;16.42;5.93;;;5.80;98.20;;;;;;5068840;28;20048;-60
2021/12/06 11:24:39;;;;;;;12.45;4.22;;;5.80;98.50;;;;;;5076976;28;20052;-59
2021/12/06 11:27:12;;;;;;;10.55;4.07;;;5.70;98.70;;;;;;5091710;28;20125;-60
2021/12/06 11:29:48;;;;;;;7.45;2.83;;;5.70;98.60;;;;;;5081731;28;20051;-59
2021/12/06 11:32:21;;;;;;;7.95;2.70;;;5.80;98.60;;;;;;5091352;28;20105;-59
2021/12/06 11:34:55;;;;;;;7.70;2.85;;;5.70;98.50;;;;;;5056224;28;20110;-60
2021/12/06 11:37:28;;;;;;;8.02;3.10;;;5.70;98.60;;;;;;5091123;28;20494;-59
2021/12/06 11:40:17;;;;;;;9.00;3.20;;;5.70;98.70;;;;;;5084831;28;20113;-60
2021/12/06 11:42:50;;;;;;;11.20;3.42;;;5.70;98.80;;;;;;5070793;28;20048;-59
2021/12/06 11:45:46;;;;;;;9.35;3.25;;;5.70;99.00;;;;;;5083233;28;20047;-60
2021/12/06 11:48:25;;;;;;;11.82;4.32;;;5.80;99.10;;;;;;5062045;28;20048;-60
2021/12/06 11:50:54;;;;;;;10.90;3.83;;;5.80;99.10;;;;;;5050304;28;20048;-59
2021/12/06 11:53:44;;;;;;;7.47;3.70;;;5.90;99.40;;;;;;5053101;28;20126;-63
2021/12/06 11:56:18;;;;;;;12.43;4.70;;;5.90;99.30;;;;;;5080967;28;20068;-61
2021/12/06 11:58:47;;;;;;;12.85;4.50;;;5.90;99.30;;;;;;5071792;28;20588;-60
2021/12/06 12:01:27;;;;;;;10.07;4.00;;;6.00;99.20;;;;;;5078867;28;20134;-60
2021/12/06 12:04:05;;;;;;;8.75;4.20;;;6.00;99.20;;;;;;5088613;28;20167;-62
2021/12/06 12:06:43;;;;;;;16.77;5.35;;;6.00;99.30;;;;;;5081094;28;20044;-61
2021/12/06 12:09:14;;;;;;;15.00;4.85;;;6.00;99.50;;;;;;5069768;28;20045;-61
2021/12/06 12:12:01;;;;;;;11.88;4.55;;;6.00;99.50;;;;;;5079127;28;20044;-61
2021/12/06 12:14:54;;;;;;;8.75;3.33;;;6.00;99.40;;;;;;5068638;28;20442;-61
2021/12/06 12:17:22;;;;;;;16.65;4.03;;;6.00;99.30;;;;;;5073532;28;20075;-61
2021/12/06 12:19:51;;;;;;;9.95;3.38;;;6.00;99.50;;;;;;5085506;28;20102;-61
2021/12/06 12:22:19;;;;;;;7.65;3.35;;;6.00;99.50;;;;;;5079872;28;20127;-61
2021/12/06 12:24:49;;;;;;;9.18;3.10;;;6.00;99.60;;;;;;5071853;28;20082;-60
2021/12/06 12:27:26;;;;;;;6.50;2.92;;;6.00;99.60;;;;;;5078662;28;20044;-60
2021/12/06 12:29:55;;;;;;;13.05;3.10;;;6.10;99.50;;;;;;5083061;28;20187;-61
2021/12/06 12:32:22;;;;;;;4.90;2.28;;;6.10;99.70;;;;;;5044203;28;20560;-60
2021/12/06 12:34:50;;;;;;;6.97;1.80;;;6.10;99.90;;;;;;5088975;28;20044;-62
2021/12/06 12:37:18;;;;;;;5.13;2.35;;;6.20;99.70;;;;;;5074160;28;20044;-60
2021/12/06 12:40:15;;;;;;;6.35;2.00;;;6.20;99.60;;;;;;5089771;28;20056;-60
2021/12/06 12:42:56;;;;;;;13.23;2.70;;;6.20;99.60;;;;;;5080788;28;20062;-61
2021/12/06 12:45:23;;;;;;;7.53;3.30;;;6.30;99.50;;;;;;5069627;28;20040;-60
2021/12/06 12:47:54;;;;;;;5.40;1.92;;;6.20;99.40;;;;;;5080939;28;20056;-61
2021/12/06 12:50:22;;;;;;;10.50;1.92;;;6.20;99.30;;;;;;5069030;28;20044;-59
2021/12/06 12:52:51;;;;;;;8.55;2.03;;;6.20;99.40;;;;;;5078215;28;20144;-59
2021/12/06 12:55:29;;;;;;;3.05;1.33;;;6.20;99.10;;;;;;5071758;28;20052;-59
2021/12/06 12:58:13;;;;;;;9.60;2.10;;;6.30;99.20;;;;;;5051442;28;20048;-60
2021/12/06 13:00:53;;;;;;;5.25;1.70;;;6.30;99.20;;;;;;5051900;28;20499;-60
2021/12/06 13:03:38;;;;;;;5.55;1.55;;;6.30;98.90;;;;;;5077611;28;20048;-60
2021/12/06 13:06:37;;;;;;;4.90;1.33;;;6.30;98.70;;;;;;5086442;28;20044;-59
2021/12/06 13:09:28;;;;;;;3.40;1.23;;;6.40;98.70;;;;;;5072754;28;20044;-59